sensor_id;sensor_type;location;lat;lon;timestamp;P1;durP1;ratioP1;P2;durP2;ratioP2
6955;SDS011;50345;51.136;16.886;2023-02-24T00:01:57;48.95;;;38.08;;
6955;SDS011;50345;51.136;16.886;2023-02-24T00:04:28;50.00;;;36.47;;
6955;SDS011;50345;51.136;16.886;2023-02-24T00:06:57;48.20;;;37.63;;
6955;SDS011;50345;51.136;16.886;2023-02-24T00:09:24;49.17;;;37.15;;
6955;SDS011;50345;51.136;16.886;2023-02-24T00:11:52;55.80;;;39.30;;
6955;SDS011;50345;51.136;16.886;2023-02-24T00:14:21;58.20;;;42.20;;
6955;SDS011;50345;51.136;16.886;2023-02-24T00:16:49;53.55;;;38.65;;
6955;SDS011;50345;51.136;16.886;2023-02-24T00:19:17;56.45;;;41.25;;
6955;SDS011;50345;51.136;16.886;2023-02-24T00:21:44;47.47;;;38.42;;
6955;SDS011;50345;51.136;16.886;2023-02-24T00:24:11;47.70;;;37.00;;
6955;SDS011;50345;51.136;16.886;2023-02-24T00:26:37;50.73;;;38.60;;
6955;SDS011;50345;51.136;16.886;2023-02-24T00:29:07;43.70;;;33.42;;
6955;SDS011;50345;51.136;16.886;2023-02-24T00:31:34;51.90;;;40.60;;
6955;SDS011;50345;51.136;16.886;2023-02-24T00:34:04;47.08;;;38.35;;
6955;SDS011;50345;51.136;16.886;2023-02-24T00:36:30;48.10;;;36.25;;
6955;SDS011;50345;51.136;16.886;2023-02-24T00:38:59;51.15;;;38.10;;
6955;SDS011;50345;51.136;16.886;2023-02-24T00:41:28;55.45;;;38.10;;
6955;SDS011;50345;51.136;16.886;2023-02-24T00:44:05;52.15;;;37.22;;
6955;SDS011;50345;51.136;16.886;2023-02-24T00:46:33;51.55;;;40.63;;
6955;SDS011;50345;51.136;16.886;2023-02-24T00:49:01;51.20;;;37.40;;
6955;SDS011;50345;51.136;16.886;2023-02-24T00:51:29;48.22;;;39.05;;
6955;SDS011;50345;51.136;16.886;2023-02-24T00:53:59;53.75;;;39.38;;
6955;SDS011;50345;51.136;16.886;2023-02-24T00:56:25;48.30;;;37.20;;
6955;SDS011;50345;51.136;16.886;2023-02-24T00:58:53;50.58;;;37.80;;
6955;SDS011;50345;51.136;16.886;2023-02-24T01:01:20;54.53;;;37.63;;
6955;SDS011;50345;51.136;16.886;2023-02-24T01:03:47;47.13;;;38.28;;
6955;SDS011;50345;51.136;16.886;2023-02-24T01:06:15;51.10;;;37.10;;
6955;SDS011;50345;51.136;16.886;2023-02-24T01:08:44;42.05;;;35.08;;
6955;SDS011;50345;51.136;16.886;2023-02-24T01:11:12;50.42;;;40.70;;
6955;SDS011;50345;51.136;16.886;2023-02-24T01:13:57;40.75;;;34.55;;
6955;SDS011;50345;51.136;16.886;2023-02-24T01:16:23;45.50;;;37.10;;
6955;SDS011;50345;51.136;16.886;2023-02-24T01:18:49;47.37;;;36.50;;
6955;SDS011;50345;51.136;16.886;2023-02-24T01:21:15;52.10;;;38.00;;
6955;SDS011;50345;51.136;16.886;2023-02-24T01:23:41;48.50;;;36.40;;
6955;SDS011;50345;51.136;16.886;2023-02-24T01:26:10;55.15;;;38.03;;
6955;SDS011;50345;51.136;16.886;2023-02-24T01:28:36;52.03;;;41.07;;
6955;SDS011;50345;51.136;16.886;2023-02-24T01:31:02;56.47;;;38.67;;
6955;SDS011;50345;51.136;16.886;2023-02-24T01:33:30;60.38;;;39.70;;
6955;SDS011;50345;51.136;16.886;2023-02-24T01:36:11;54.58;;;40.50;;
6955;SDS011;50345;51.136;16.886;2023-02-24T01:38:41;59.40;;;41.90;;
6955;SDS011;50345;51.136;16.886;2023-02-24T01:41:11;64.65;;;42.60;;
6955;SDS011;50345;51.136;16.886;2023-02-24T01:46:19;54.63;;;39.25;;
6955;SDS011;50345;51.136;16.886;2023-02-24T01:48:47;58.03;;;41.22;;
6955;SDS011;50345;51.136;16.886;2023-02-24T01:51:14;61.47;;;43.42;;
6955;SDS011;50345;51.136;16.886;2023-02-24T01:53:40;68.15;;;45.67;;
6955;SDS011;50345;51.136;16.886;2023-02-24T01:56:06;65.87;;;45.57;;
6955;SDS011;50345;51.136;16.886;2023-02-24T01:58:32;60.20;;;42.77;;
6955;SDS011;50345;51.136;16.886;2023-02-24T02:00:58;58.97;;;42.07;;
6955;SDS011;50345;51.136;16.886;2023-02-24T02:06:02;62.15;;;44.35;;
6955;SDS011;50345;51.136;16.886;2023-02-24T02:08:30;61.13;;;45.50;;
6955;SDS011;50345;51.136;16.886;2023-02-24T02:10:57;67.20;;;48.03;;
6955;SDS011;50345;51.136;16.886;2023-02-24T02:13:28;69.60;;;46.17;;
6955;SDS011;50345;51.136;16.886;2023-02-24T02:16:09;52.17;;;41.97;;
6955;SDS011;50345;51.136;16.886;2023-02-24T02:18:56;64.55;;;43.75;;
6955;SDS011;50345;51.136;16.886;2023-02-24T02:24:40;53.95;;;39.17;;
6955;SDS011;50345;51.136;16.886;2023-02-24T02:27:21;57.28;;;36.85;;
6955;SDS011;50345;51.136;16.886;2023-02-24T02:30:16;58.45;;;39.35;;
6955;SDS011;50345;51.136;16.886;2023-02-24T02:38:24;52.55;;;36.00;;
6955;SDS011;50345;51.136;16.886;2023-02-24T02:46:25;50.58;;;36.10;;
6955;SDS011;50345;51.136;16.886;2023-02-24T02:49:10;52.05;;;37.60;;
6955;SDS011;50345;51.136;16.886;2023-02-24T02:51:46;54.75;;;38.53;;
6955;SDS011;50345;51.136;16.886;2023-02-24T02:54:34;49.55;;;36.65;;
6955;SDS011;50345;51.136;16.886;2023-02-24T02:57:25;51.13;;;36.35;;
6955;SDS011;50345;51.136;16.886;2023-02-24T02:59:56;49.78;;;35.97;;
6955;SDS011;50345;51.136;16.886;2023-02-24T03:02:26;55.45;;;39.17;;
6955;SDS011;50345;51.136;16.886;2023-02-24T03:04:57;53.45;;;38.33;;
6955;SDS011;50345;51.136;16.886;2023-02-24T03:07:27;54.67;;;39.92;;
6955;SDS011;50345;51.136;16.886;2023-02-24T03:10:00;58.25;;;42.25;;
6955;SDS011;50345;51.136;16.886;2023-02-24T03:12:34;53.45;;;40.47;;
6955;SDS011;50345;51.136;16.886;2023-02-24T03:15:05;52.40;;;41.38;;
6955;SDS011;50345;51.136;16.886;2023-02-24T03:17:36;56.33;;;41.40;;
6955;SDS011;50345;51.136;16.886;2023-02-24T03:20:10;53.22;;;38.13;;
6955;SDS011;50345;51.136;16.886;2023-02-24T03:22:45;49.60;;;36.80;;
6955;SDS011;50345;51.136;16.886;2023-02-24T03:25:18;48.45;;;34.53;;
6955;SDS011;50345;51.136;16.886;2023-02-24T03:27:50;52.25;;;37.78;;
6955;SDS011;50345;51.136;16.886;2023-02-24T03:30:31;53.80;;;38.70;;
6955;SDS011;50345;51.136;16.886;2023-02-24T03:33:23;54.33;;;38.15;;
6955;SDS011;50345;51.136;16.886;2023-02-24T03:35:54;47.70;;;34.47;;
6955;SDS011;50345;51.136;16.886;2023-02-24T03:38:25;52.95;;;36.08;;
6955;SDS011;50345;51.136;16.886;2023-02-24T03:40:55;51.45;;;37.25;;
6955;SDS011;50345;51.136;16.886;2023-02-24T03:43:24;46.45;;;35.58;;
6955;SDS011;50345;51.136;16.886;2023-02-24T03:45:57;43.65;;;33.45;;
6955;SDS011;50345;51.136;16.886;2023-02-24T03:48:25;46.47;;;34.90;;
6955;SDS011;50345;51.136;16.886;2023-02-24T03:50:52;54.28;;;37.20;;
6955;SDS011;50345;51.136;16.886;2023-02-24T03:58:56;52.45;;;34.88;;
6955;SDS011;50345;51.136;16.886;2023-02-24T04:01:38;46.13;;;35.63;;
6955;SDS011;50345;51.136;16.886;2023-02-24T04:04:17;46.42;;;34.03;;
6955;SDS011;50345;51.136;16.886;2023-02-24T04:10:07;43.70;;;30.95;;
6955;SDS011;50345;51.136;16.886;2023-02-24T04:17:58;43.55;;;32.55;;
6955;SDS011;50345;51.136;16.886;2023-02-24T04:20:28;44.85;;;34.20;;
6955;SDS011;50345;51.136;16.886;2023-02-24T04:23:04;44.88;;;31.48;;
6955;SDS011;50345;51.136;16.886;2023-02-24T04:25:34;40.15;;;30.13;;
6955;SDS011;50345;51.136;16.886;2023-02-24T04:28:01;42.13;;;30.67;;
6955;SDS011;50345;51.136;16.886;2023-02-24T04:30:29;42.47;;;32.72;;
6955;SDS011;50345;51.136;16.886;2023-02-24T04:32:58;42.47;;;32.10;;
6955;SDS011;50345;51.136;16.886;2023-02-24T04:35:24;41.57;;;33.03;;
6955;SDS011;50345;51.136;16.886;2023-02-24T04:37:50;53.97;;;38.67;;
6955;SDS011;50345;51.136;16.886;2023-02-24T04:40:17;52.37;;;37.70;;
6955;SDS011;50345;51.136;16.886;2023-02-24T04:42:46;53.80;;;40.08;;
6955;SDS011;50345;51.136;16.886;2023-02-24T04:45:20;53.50;;;38.15;;
6955;SDS011;50345;51.136;16.886;2023-02-24T04:47:48;56.03;;;39.35;;
6955;SDS011;50345;51.136;16.886;2023-02-24T04:50:15;51.67;;;39.30;;
6955;SDS011;50345;51.136;16.886;2023-02-24T04:52:47;46.70;;;36.63;;
6955;SDS011;50345;51.136;16.886;2023-02-24T04:55:17;49.10;;;36.85;;
6955;SDS011;50345;51.136;16.886;2023-02-24T04:57:46;43.58;;;33.50;;
6955;SDS011;50345;51.136;16.886;2023-02-24T05:00:21;40.47;;;31.90;;
6955;SDS011;50345;51.136;16.886;2023-02-24T05:02:50;40.88;;;31.30;;
6955;SDS011;50345;51.136;16.886;2023-02-24T05:05:18;38.38;;;27.27;;
6955;SDS011;50345;51.136;16.886;2023-02-24T05:07:58;38.33;;;28.95;;
6955;SDS011;50345;51.136;16.886;2023-02-24T05:10:36;38.45;;;28.00;;
6955;SDS011;50345;51.136;16.886;2023-02-24T05:13:04;35.95;;;27.15;;
6955;SDS011;50345;51.136;16.886;2023-02-24T05:15:31;36.08;;;26.67;;
6955;SDS011;50345;51.136;16.886;2023-02-24T05:18:01;34.75;;;26.85;;
6955;SDS011;50345;51.136;16.886;2023-02-24T05:20:34;32.05;;;24.85;;
6955;SDS011;50345;51.136;16.886;2023-02-24T05:23:23;35.10;;;28.20;;
6955;SDS011;50345;51.136;16.886;2023-02-24T05:25:55;34.13;;;26.98;;
6955;SDS011;50345;51.136;16.886;2023-02-24T05:28:25;32.95;;;23.83;;
6955;SDS011;50345;51.136;16.886;2023-02-24T05:30:51;34.23;;;24.90;;
6955;SDS011;50345;51.136;16.886;2023-02-24T05:33:20;30.05;;;23.52;;
6955;SDS011;50345;51.136;16.886;2023-02-24T05:35:48;31.33;;;24.47;;
6955;SDS011;50345;51.136;16.886;2023-02-24T05:38:17;36.67;;;24.98;;
6955;SDS011;50345;51.136;16.886;2023-02-24T05:40:44;34.87;;;25.47;;
6955;SDS011;50345;51.136;16.886;2023-02-24T05:43:13;30.35;;;24.30;;
6955;SDS011;50345;51.136;16.886;2023-02-24T05:45:43;30.20;;;23.50;;
6955;SDS011;50345;51.136;16.886;2023-02-24T05:48:09;28.73;;;22.33;;
6955;SDS011;50345;51.136;16.886;2023-02-24T05:50:38;30.13;;;23.75;;
6955;SDS011;50345;51.136;16.886;2023-02-24T05:53:05;30.85;;;24.08;;
6955;SDS011;50345;51.136;16.886;2023-02-24T05:55:33;30.58;;;22.30;;
6955;SDS011;50345;51.136;16.886;2023-02-24T05:58:00;28.02;;;20.88;;
6955;SDS011;50345;51.136;16.886;2023-02-24T06:00:30;25.33;;;20.02;;
6955;SDS011;50345;51.136;16.886;2023-02-24T06:02:55;22.53;;;15.37;;
6955;SDS011;50345;51.136;16.886;2023-02-24T06:05:32;20.30;;;15.50;;
6955;SDS011;50345;51.136;16.886;2023-02-24T06:07:59;16.55;;;13.82;;
6955;SDS011;50345;51.136;16.886;2023-02-24T06:10:36;19.92;;;15.23;;
6955;SDS011;50345;51.136;16.886;2023-02-24T06:13:04;18.08;;;14.20;;
6955;SDS011;50345;51.136;16.886;2023-02-24T06:15:31;16.73;;;14.18;;
6955;SDS011;50345;51.136;16.886;2023-02-24T06:17:59;20.13;;;16.10;;
6955;SDS011;50345;51.136;16.886;2023-02-24T06:20:26;19.77;;;14.90;;
6955;SDS011;50345;51.136;16.886;2023-02-24T06:22:53;18.48;;;15.75;;
6955;SDS011;50345;51.136;16.886;2023-02-24T06:25:22;22.88;;;15.75;;
6955;SDS011;50345;51.136;16.886;2023-02-24T06:27:50;18.80;;;15.43;;
6955;SDS011;50345;51.136;16.886;2023-02-24T06:30:18;23.88;;;15.48;;
6955;SDS011;50345;51.136;16.886;2023-02-24T06:32:46;20.75;;;15.38;;
6955;SDS011;50345;51.136;16.886;2023-02-24T06:35:12;23.15;;;18.45;;
6955;SDS011;50345;51.136;16.886;2023-02-24T06:37:38;23.27;;;16.30;;
6955;SDS011;50345;51.136;16.886;2023-02-24T06:40:05;19.77;;;15.52;;
6955;SDS011;50345;51.136;16.886;2023-02-24T06:42:48;20.08;;;15.98;;
6955;SDS011;50345;51.136;16.886;2023-02-24T06:45:19;21.45;;;16.08;;
6955;SDS011;50345;51.136;16.886;2023-02-24T06:47:45;22.60;;;17.60;;
6955;SDS011;50345;51.136;16.886;2023-02-24T06:50:13;20.88;;;15.50;;
6955;SDS011;50345;51.136;16.886;2023-02-24T06:52:43;22.67;;;16.77;;
6955;SDS011;50345;51.136;16.886;2023-02-24T06:55:09;21.30;;;15.95;;
6955;SDS011;50345;51.136;16.886;2023-02-24T06:57:50;26.42;;;16.27;;
6955;SDS011;50345;51.136;16.886;2023-02-24T07:00:17;21.60;;;16.98;;
6955;SDS011;50345;51.136;16.886;2023-02-24T07:02:49;25.35;;;17.70;;
6955;SDS011;50345;51.136;16.886;2023-02-24T07:05:15;23.53;;;15.73;;
6955;SDS011;50345;51.136;16.886;2023-02-24T07:07:41;31.85;;;22.65;;
6955;SDS011;50345;51.136;16.886;2023-02-24T07:10:12;31.15;;;21.30;;
6955;SDS011;50345;51.136;16.886;2023-02-24T07:12:39;24.95;;;18.50;;
6955;SDS011;50345;51.136;16.886;2023-02-24T07:15:06;22.10;;;17.37;;
6955;SDS011;50345;51.136;16.886;2023-02-24T07:17:32;27.70;;;18.48;;
6955;SDS011;50345;51.136;16.886;2023-02-24T07:19:58;25.53;;;19.40;;
6955;SDS011;50345;51.136;16.886;2023-02-24T07:22:34;23.00;;;17.47;;
6955;SDS011;50345;51.136;16.886;2023-02-24T07:25:01;24.67;;;17.55;;
6955;SDS011;50345;51.136;16.886;2023-02-24T07:27:27;24.90;;;18.47;;
6955;SDS011;50345;51.136;16.886;2023-02-24T07:29:52;28.70;;;18.53;;
6955;SDS011;50345;51.136;16.886;2023-02-24T07:32:18;22.90;;;16.93;;
6955;SDS011;50345;51.136;16.886;2023-02-24T07:34:46;22.25;;;15.18;;
6955;SDS011;50345;51.136;16.886;2023-02-24T07:37:12;25.07;;;15.43;;
6955;SDS011;50345;51.136;16.886;2023-02-24T07:39:37;23.50;;;15.77;;
6955;SDS011;50345;51.136;16.886;2023-02-24T07:42:04;22.17;;;15.63;;
6955;SDS011;50345;51.136;16.886;2023-02-24T07:44:31;24.08;;;16.00;;
6955;SDS011;50345;51.136;16.886;2023-02-24T07:46:57;19.30;;;13.97;;
6955;SDS011;50345;51.136;16.886;2023-02-24T07:49:23;21.63;;;15.93;;
6955;SDS011;50345;51.136;16.886;2023-02-24T07:51:50;27.15;;;17.33;;
6955;SDS011;50345;51.136;16.886;2023-02-24T07:54:17;22.88;;;16.42;;
6955;SDS011;50345;51.136;16.886;2023-02-24T07:56:45;20.55;;;15.23;;
6955;SDS011;50345;51.136;16.886;2023-02-24T07:59:13;23.27;;;16.25;;
6955;SDS011;50345;51.136;16.886;2023-02-24T08:01:43;22.73;;;16.63;;
6955;SDS011;50345;51.136;16.886;2023-02-24T08:04:18;25.48;;;16.15;;
6955;SDS011;50345;51.136;16.886;2023-02-24T08:06:47;22.67;;;17.83;;
6955;SDS011;50345;51.136;16.886;2023-02-24T08:09:20;25.42;;;17.05;;
6955;SDS011;50345;51.136;16.886;2023-02-24T08:12:08;20.25;;;16.00;;
6955;SDS011;50345;51.136;16.886;2023-02-24T08:14:35;22.85;;;16.15;;
6955;SDS011;50345;51.136;16.886;2023-02-24T08:17:08;24.25;;;17.85;;
6955;SDS011;50345;51.136;16.886;2023-02-24T08:19:35;29.40;;;22.42;;
6955;SDS011;50345;51.136;16.886;2023-02-24T08:22:05;23.40;;;18.90;;
6955;SDS011;50345;51.136;16.886;2023-02-24T08:24:57;28.65;;;18.00;;
6955;SDS011;50345;51.136;16.886;2023-02-24T08:27:29;20.92;;;17.58;;
6955;SDS011;50345;51.136;16.886;2023-02-24T08:29:58;22.20;;;16.90;;
6955;SDS011;50345;51.136;16.886;2023-02-24T08:35:17;20.85;;;15.80;;
6955;SDS011;50345;51.136;16.886;2023-02-24T08:37:45;23.95;;;16.88;;
6955;SDS011;50345;51.136;16.886;2023-02-24T08:40:23;21.77;;;15.10;;
6955;SDS011;50345;51.136;16.886;2023-02-24T08:43:00;19.38;;;13.85;;
6955;SDS011;50345;51.136;16.886;2023-02-24T08:45:56;22.73;;;15.50;;
6955;SDS011;50345;51.136;16.886;2023-02-24T08:48:24;18.65;;;13.23;;
6955;SDS011;50345;51.136;16.886;2023-02-24T08:51:16;21.20;;;15.55;;
6955;SDS011;50345;51.136;16.886;2023-02-24T08:53:46;17.52;;;14.05;;
6955;SDS011;50345;51.136;16.886;2023-02-24T08:56:20;21.35;;;13.35;;
6955;SDS011;50345;51.136;16.886;2023-02-24T08:58:54;17.48;;;11.85;;
6955;SDS011;50345;51.136;16.886;2023-02-24T09:01:29;19.33;;;12.93;;
6955;SDS011;50345;51.136;16.886;2023-02-24T09:04:10;22.17;;;12.75;;
6955;SDS011;50345;51.136;16.886;2023-02-24T09:06:49;20.25;;;11.75;;
6955;SDS011;50345;51.136;16.886;2023-02-24T09:09:22;19.50;;;13.20;;
6955;SDS011;50345;51.136;16.886;2023-02-24T09:14:20;16.85;;;11.02;;
6955;SDS011;50345;51.136;16.886;2023-02-24T09:17:06;16.23;;;10.63;;
6955;SDS011;50345;51.136;16.886;2023-02-24T09:19:44;16.05;;;11.52;;
6955;SDS011;50345;51.136;16.886;2023-02-24T09:22:31;16.65;;;11.55;;
6955;SDS011;50345;51.136;16.886;2023-02-24T09:25:01;13.80;;;11.77;;
6955;SDS011;50345;51.136;16.886;2023-02-24T09:28:08;13.98;;;11.23;;
6955;SDS011;50345;51.136;16.886;2023-02-24T09:30:41;17.92;;;11.55;;
6955;SDS011;50345;51.136;16.886;2023-02-24T09:33:27;16.08;;;11.85;;
6955;SDS011;50345;51.136;16.886;2023-02-24T09:36:05;16.95;;;11.57;;
6955;SDS011;50345;51.136;16.886;2023-02-24T09:38:37;15.88;;;11.10;;
6955;SDS011;50345;51.136;16.886;2023-02-24T09:41:36;14.93;;;10.45;;
6955;SDS011;50345;51.136;16.886;2023-02-24T09:44:33;19.05;;;12.10;;
6955;SDS011;50345;51.136;16.886;2023-02-24T09:52:48;14.30;;;9.02;;
6955;SDS011;50345;51.136;16.886;2023-02-24T09:58:09;15.23;;;10.15;;
6955;SDS011;50345;51.136;16.886;2023-02-24T10:03:44;14.70;;;10.20;;
6955;SDS011;50345;51.136;16.886;2023-02-24T10:06:25;16.05;;;10.77;;
6955;SDS011;50345;51.136;16.886;2023-02-24T10:11:44;6.88;;;6.15;;
6955;SDS011;50345;51.136;16.886;2023-02-24T10:14:19;7.63;;;5.13;;
6955;SDS011;50345;51.136;16.886;2023-02-24T10:16:46;5.93;;;5.00;;
6955;SDS011;50345;51.136;16.886;2023-02-24T10:19:35;6.93;;;5.28;;
6955;SDS011;50345;51.136;16.886;2023-02-24T10:22:22;9.18;;;6.40;;
6955;SDS011;50345;51.136;16.886;2023-02-24T10:25:03;11.77;;;5.70;;
6955;SDS011;50345;51.136;16.886;2023-02-24T10:27:40;7.30;;;4.95;;
6955;SDS011;50345;51.136;16.886;2023-02-24T10:33:37;6.88;;;3.72;;
6955;SDS011;50345;51.136;16.886;2023-02-24T10:36:18;3.42;;;2.95;;
6955;SDS011;50345;51.136;16.886;2023-02-24T10:38:54;4.70;;;4.00;;
6955;SDS011;50345;51.136;16.886;2023-02-24T10:41:20;5.72;;;3.92;;
6955;SDS011;50345;51.136;16.886;2023-02-24T10:43:55;7.60;;;3.40;;
6955;SDS011;50345;51.136;16.886;2023-02-24T10:46:29;4.60;;;3.70;;
6955;SDS011;50345;51.136;16.886;2023-02-24T10:49:00;4.75;;;4.00;;
6955;SDS011;50345;51.136;16.886;2023-02-24T10:51:30;7.53;;;4.80;;
6955;SDS011;50345;51.136;16.886;2023-02-24T10:54:19;4.30;;;3.38;;
6955;SDS011;50345;51.136;16.886;2023-02-24T10:56:57;3.20;;;2.90;;
6955;SDS011;50345;51.136;16.886;2023-02-24T10:59:55;8.25;;;5.55;;
6955;SDS011;50345;51.136;16.886;2023-02-24T11:02:46;4.43;;;4.03;;
6955;SDS011;50345;51.136;16.886;2023-02-24T11:05:44;6.28;;;5.00;;
6955;SDS011;50345;51.136;16.886;2023-02-24T11:08:42;7.75;;;5.90;;
6955;SDS011;50345;51.136;16.886;2023-02-24T11:11:19;7.38;;;6.28;;
6955;SDS011;50345;51.136;16.886;2023-02-24T11:13:54;7.32;;;6.00;;
6955;SDS011;50345;51.136;16.886;2023-02-24T11:16:45;7.93;;;5.25;;
6955;SDS011;50345;51.136;16.886;2023-02-24T11:19:32;8.88;;;7.97;;
6955;SDS011;50345;51.136;16.886;2023-02-24T11:22:24;9.52;;;6.57;;
6955;SDS011;50345;51.136;16.886;2023-02-24T11:24:56;7.88;;;5.57;;
6955;SDS011;50345;51.136;16.886;2023-02-24T11:27:29;8.38;;;6.78;;
6955;SDS011;50345;51.136;16.886;2023-02-24T11:35:35;7.25;;;5.68;;
6955;SDS011;50345;51.136;16.886;2023-02-24T11:40:42;7.97;;;7.18;;
6955;SDS011;50345;51.136;16.886;2023-02-24T11:43:14;8.73;;;7.38;;
6955;SDS011;50345;51.136;16.886;2023-02-24T11:48:21;9.57;;;8.63;;
6955;SDS011;50345;51.136;16.886;2023-02-24T11:53:25;8.53;;;6.70;;
6955;SDS011;50345;51.136;16.886;2023-02-24T11:58:45;12.43;;;8.90;;
6955;SDS011;50345;51.136;16.886;2023-02-24T12:01:24;10.32;;;8.52;;
6955;SDS011;50345;51.136;16.886;2023-02-24T12:09:53;12.70;;;10.93;;
6955;SDS011;50345;51.136;16.886;2023-02-24T12:14:56;10.87;;;8.80;;
6955;SDS011;50345;51.136;16.886;2023-02-24T12:20:22;10.98;;;8.73;;
6955;SDS011;50345;51.136;16.886;2023-02-24T12:26:25;4.95;;;4.45;;
6955;SDS011;50345;51.136;16.886;2023-02-24T12:36:36;7.05;;;5.10;;
6955;SDS011;50345;51.136;16.886;2023-02-24T12:39:21;5.65;;;5.00;;
6955;SDS011;50345;51.136;16.886;2023-02-24T12:45:01;4.80;;;4.05;;
6955;SDS011;50345;51.136;16.886;2023-02-24T12:53:39;6.47;;;5.18;;
6955;SDS011;50345;51.136;16.886;2023-02-24T12:58:50;7.03;;;5.03;;
6955;SDS011;50345;51.136;16.886;2023-02-24T13:12:16;6.22;;;4.13;;
6955;SDS011;50345;51.136;16.886;2023-02-24T13:14:49;6.25;;;3.40;;
6955;SDS011;50345;51.136;16.886;2023-02-24T13:17:22;3.35;;;3.05;;
6955;SDS011;50345;51.136;16.886;2023-02-24T13:19:51;6.32;;;5.72;;
6955;SDS011;50345;51.136;16.886;2023-02-24T13:22:22;5.65;;;4.35;;
6955;SDS011;50345;51.136;16.886;2023-02-24T13:27:34;4.25;;;3.88;;
6955;SDS011;50345;51.136;16.886;2023-02-24T13:30:26;6.10;;;3.75;;
6955;SDS011;50345;51.136;16.886;2023-02-24T13:35:44;4.97;;;4.53;;
6955;SDS011;50345;51.136;16.886;2023-02-24T13:41:05;5.28;;;4.78;;
6955;SDS011;50345;51.136;16.886;2023-02-24T13:43:32;6.55;;;4.22;;
6955;SDS011;50345;51.136;16.886;2023-02-24T13:45:59;4.80;;;4.00;;
6955;SDS011;50345;51.136;16.886;2023-02-24T13:48:49;5.07;;;3.97;;
6955;SDS011;50345;51.136;16.886;2023-02-24T13:57:19;3.97;;;2.90;;
6955;SDS011;50345;51.136;16.886;2023-02-24T14:00:05;3.97;;;3.53;;
6955;SDS011;50345;51.136;16.886;2023-02-24T14:02:45;3.40;;;3.10;;
6955;SDS011;50345;51.136;16.886;2023-02-24T14:05:33;8.25;;;3.63;;
6955;SDS011;50345;51.136;16.886;2023-02-24T14:07:59;6.15;;;5.50;;
6955;SDS011;50345;51.136;16.886;2023-02-24T14:10:29;4.18;;;3.88;;
6955;SDS011;50345;51.136;16.886;2023-02-24T14:13:05;6.43;;;4.30;;
6955;SDS011;50345;51.136;16.886;2023-02-24T14:15:40;4.70;;;3.83;;
6955;SDS011;50345;51.136;16.886;2023-02-24T14:18:16;3.75;;;3.40;;
6955;SDS011;50345;51.136;16.886;2023-02-24T14:20:44;4.65;;;4.30;;
6955;SDS011;50345;51.136;16.886;2023-02-24T14:23:20;4.40;;;4.00;;
6955;SDS011;50345;51.136;16.886;2023-02-24T14:26:00;6.78;;;4.65;;
6955;SDS011;50345;51.136;16.886;2023-02-24T14:28:38;6.35;;;4.30;;
6955;SDS011;50345;51.136;16.886;2023-02-24T14:31:09;6.15;;;5.60;;
6955;SDS011;50345;51.136;16.886;2023-02-24T14:33:39;4.70;;;4.32;;
6955;SDS011;50345;51.136;16.886;2023-02-24T14:36:06;6.07;;;4.68;;
6955;SDS011;50345;51.136;16.886;2023-02-24T14:38:42;4.72;;;4.25;;
6955;SDS011;50345;51.136;16.886;2023-02-24T14:41:22;6.65;;;4.40;;
6955;SDS011;50345;51.136;16.886;2023-02-24T14:43:49;5.50;;;4.90;;
6955;SDS011;50345;51.136;16.886;2023-02-24T14:46:16;4.70;;;4.20;;
6955;SDS011;50345;51.136;16.886;2023-02-24T14:48:42;5.32;;;4.80;;
6955;SDS011;50345;51.136;16.886;2023-02-24T14:51:15;4.60;;;4.20;;
6955;SDS011;50345;51.136;16.886;2023-02-24T14:53:57;4.88;;;3.85;;
6955;SDS011;50345;51.136;16.886;2023-02-24T14:56:27;4.28;;;3.83;;
6955;SDS011;50345;51.136;16.886;2023-02-24T14:59:20;3.85;;;3.45;;
6955;SDS011;50345;51.136;16.886;2023-02-24T15:01:43;4.90;;;4.50;;
6955;SDS011;50345;51.136;16.886;2023-02-24T15:04:22;19.63;;;13.98;;
6955;SDS011;50345;51.136;16.886;2023-02-24T15:06:52;28.63;;;21.27;;
6955;SDS011;50345;51.136;16.886;2023-02-24T15:09:18;10.97;;;9.73;;
6955;SDS011;50345;51.136;16.886;2023-02-24T15:11:47;6.38;;;3.78;;
6955;SDS011;50345;51.136;16.886;2023-02-24T15:14:20;4.00;;;3.67;;
6955;SDS011;50345;51.136;16.886;2023-02-24T15:16:53;4.93;;;3.55;;
6955;SDS011;50345;51.136;16.886;2023-02-24T15:21:50;8.68;;;5.38;;
6955;SDS011;50345;51.136;16.886;2023-02-24T15:24:16;5.47;;;4.93;;
6955;SDS011;50345;51.136;16.886;2023-02-24T15:26:55;13.23;;;10.75;;
6955;SDS011;50345;51.136;16.886;2023-02-24T15:29:23;9.05;;;6.07;;
6955;SDS011;50345;51.136;16.886;2023-02-24T15:31:52;6.05;;;5.05;;
6955;SDS011;50345;51.136;16.886;2023-02-24T15:34:23;8.70;;;4.30;;
6955;SDS011;50345;51.136;16.886;2023-02-24T15:36:53;7.97;;;5.55;;
6955;SDS011;50345;51.136;16.886;2023-02-24T15:39:22;8.55;;;5.30;;
6955;SDS011;50345;51.136;16.886;2023-02-24T15:41:51;8.25;;;6.20;;
6955;SDS011;50345;51.136;16.886;2023-02-24T15:44:34;13.00;;;10.55;;
6955;SDS011;50345;51.136;16.886;2023-02-24T15:47:11;19.75;;;13.45;;
6955;SDS011;50345;51.136;16.886;2023-02-24T15:49:45;16.95;;;13.20;;
6955;SDS011;50345;51.136;16.886;2023-02-24T15:52:10;21.10;;;14.20;;
6955;SDS011;50345;51.136;16.886;2023-02-24T15:54:36;28.77;;;15.10;;
6955;SDS011;50345;51.136;16.886;2023-02-24T15:57:03;23.73;;;14.00;;
6955;SDS011;50345;51.136;16.886;2023-02-24T15:59:29;47.83;;;37.53;;
6955;SDS011;50345;51.136;16.886;2023-02-24T16:01:55;43.17;;;37.13;;
6955;SDS011;50345;51.136;16.886;2023-02-24T16:04:21;35.55;;;29.70;;
6955;SDS011;50345;51.136;16.886;2023-02-24T16:06:52;29.75;;;26.58;;
6955;SDS011;50345;51.136;16.886;2023-02-24T16:09:23;41.45;;;32.33;;
6955;SDS011;50345;51.136;16.886;2023-02-24T16:11:56;17.67;;;14.00;;
6955;SDS011;50345;51.136;16.886;2023-02-24T16:14:22;34.25;;;30.92;;
6955;SDS011;50345;51.136;16.886;2023-02-24T16:16:48;41.60;;;37.23;;
6955;SDS011;50345;51.136;16.886;2023-02-24T16:19:14;32.07;;;28.57;;
6955;SDS011;50345;51.136;16.886;2023-02-24T16:21:40;15.32;;;10.05;;
6955;SDS011;50345;51.136;16.886;2023-02-24T16:24:06;54.47;;;37.77;;
6955;SDS011;50345;51.136;16.886;2023-02-24T16:26:34;34.37;;;22.73;;
6955;SDS011;50345;51.136;16.886;2023-02-24T16:29:02;34.20;;;24.95;;
6955;SDS011;50345;51.136;16.886;2023-02-24T16:31:35;18.00;;;12.77;;
6955;SDS011;50345;51.136;16.886;2023-02-24T16:34:02;17.42;;;12.95;;
6955;SDS011;50345;51.136;16.886;2023-02-24T16:36:29;21.05;;;18.67;;
6955;SDS011;50345;51.136;16.886;2023-02-24T16:38:55;8.55;;;7.32;;
6955;SDS011;50345;51.136;16.886;2023-02-24T16:41:21;7.43;;;5.75;;
6955;SDS011;50345;51.136;16.886;2023-02-24T16:43:47;7.28;;;6.05;;
6955;SDS011;50345;51.136;16.886;2023-02-24T16:46:14;10.70;;;6.15;;
6955;SDS011;50345;51.136;16.886;2023-02-24T16:48:46;8.57;;;5.70;;
6955;SDS011;50345;51.136;16.886;2023-02-24T16:51:13;8.75;;;6.38;;
6955;SDS011;50345;51.136;16.886;2023-02-24T16:53:40;9.30;;;8.00;;
6955;SDS011;50345;51.136;16.886;2023-02-24T16:56:06;7.03;;;6.05;;
6955;SDS011;50345;51.136;16.886;2023-02-24T16:58:32;12.57;;;10.68;;
6955;SDS011;50345;51.136;16.886;2023-02-24T17:00:58;17.63;;;10.93;;
6955;SDS011;50345;51.136;16.886;2023-02-24T17:03:37;20.85;;;16.08;;
6955;SDS011;50345;51.136;16.886;2023-02-24T17:06:07;8.25;;;7.38;;
6955;SDS011;50345;51.136;16.886;2023-02-24T17:08:33;10.53;;;8.53;;
6955;SDS011;50345;51.136;16.886;2023-02-24T17:10:58;15.97;;;13.77;;
6955;SDS011;50345;51.136;16.886;2023-02-24T17:13:24;31.33;;;21.67;;